createdAt,value
2023-01-21T00:02:43.558Z,26.1
2023-01-21T00:08:06.091Z,25.8
2023-01-21T00:13:28.585Z,25.6
2023-01-21T00:18:19.927Z,25.4
2023-01-21T00:23:42.452Z,25.5
2023-01-21T00:29:04.584Z,25.9
2023-01-21T00:34:29.730Z,25.9
2023-01-21T00:39:52.137Z,25.6
2023-01-21T00:45:14.829Z,25.3
2023-01-21T00:50:06.131Z,25.1
2023-01-21T00:55:13.639Z,24.9
2023-01-21T01:00:22.042Z,25.2
2023-01-21T01:05:44.785Z,25.6
2023-01-21T01:11:08.099Z,25.6
2023-01-21T01:16:15.322Z,25.3
2023-01-21T01:21:38.144Z,24.9
2023-01-21T01:27:00.781Z,24.8
2023-01-21T01:32:24.248Z,25.2
2023-01-21T01:37:46.841Z,25.4
2023-01-21T01:42:54.309Z,25.1
2023-01-21T01:48:17.084Z,24.8
2023-01-21T01:53:24.719Z,24.6
2023-01-21T01:58:47.099Z,24.9
2023-01-21T02:04:10.484Z,25.3
2023-01-21T02:09:33.115Z,25.1
2023-01-21T02:14:55.067Z,24.9
2023-01-21T02:20:18.145Z,25.3
2023-01-21T02:25:24.879Z,25
2023-01-21T02:30:52.050Z,24.9
2023-01-21T02:35:59.035Z,25.2
2023-01-21T02:41:21.974Z,25.1
2023-01-21T02:46:45.220Z,24.8
2023-01-21T02:52:08.528Z,25.1
2023-01-21T02:57:15.919Z,25.1
2023-01-21T03:02:23.521Z,24.8
2023-01-21T03:07:45.768Z,25
2023-01-21T03:12:52.715Z,25.1
2023-01-21T03:18:15.581Z,24.8
2023-01-21T03:23:38.501Z,24.9
2023-01-21T03:29:00.982Z,25.2
2023-01-21T03:34:24.214Z,24.9
2023-01-21T03:39:30.978Z,24.9
2023-01-21T03:44:38.254Z,25.2
2023-01-21T03:49:45.668Z,24.9
2023-01-21T03:55:08.217Z,24.9
2023-01-21T04:00:30.789Z,25.2
2023-01-21T04:05:38.405Z,25
2023-01-21T04:10:45.642Z,24.8
2023-01-21T04:16:12.153Z,25.2
2023-01-21T04:21:04.694Z,25.1
2023-01-21T04:26:30.172Z,24.8
2023-01-21T04:31:53.018Z,25.1
2023-01-21T04:37:15.499Z,25.1
2023-01-21T04:42:37.698Z,24.8
2023-01-21T04:48:00.029Z,25
2023-01-21T04:53:22.818Z,25.1
2023-01-21T04:58:30.821Z,24.8
2023-01-21T05:03:38.773Z,25
2023-01-21T05:09:01.984Z,25.2
2023-01-21T05:14:24.378Z,24.9
2023-01-21T05:19:32.011Z,24.9
2023-01-21T05:24:54.790Z,25.2
2023-01-21T05:30:17.731Z,24.9
2023-01-21T05:35:25.539Z,24.9
2023-01-21T05:40:33.171Z,25.3
2023-01-21T05:45:57.915Z,25.3
2023-01-21T05:51:20.762Z,25.1
2023-01-21T05:56:58.081Z,25.1
2023-01-21T06:02:05.076Z,25.1
2023-01-21T06:07:12.387Z,24.8
2023-01-21T06:12:35.361Z,24.9
2023-01-21T06:17:58.436Z,25.1
2023-01-21T06:23:05.812Z,24.8
2023-01-21T06:28:13.089Z,24.8
2023-01-21T06:33:36.607Z,25.1
2023-01-21T06:38:44.850Z,24.8
2023-01-21T06:44:08.669Z,24.8
2023-01-21T06:49:41.669Z,25.1
2023-01-21T06:54:49.312Z,24.8
2023-01-21T07:00:11.901Z,24.7
2023-01-21T07:05:35.101Z,25.1
2023-01-21T07:10:42.612Z,24.9
2023-01-21T07:15:50.767Z,24.5
2023-01-21T07:20:58.201Z,24.3
2023-01-21T07:26:21.485Z,24.1
2023-01-21T07:31:47.386Z,23.9
2023-01-21T07:37:09.860Z,23.9
2023-01-21T07:42:31.735Z,23.7
2023-01-21T07:47:56.734Z,23.9
2023-01-21T07:53:19.646Z,24.3
2023-01-21T07:58:42.062Z,24.6
2023-01-21T08:04:05.427Z,24.3
2023-01-21T08:09:27.826Z,24
2023-01-21T08:14:50.400Z,23.8
2023-01-21T08:20:13.066Z,23.7
2023-01-21T08:25:36.251Z,23.5
2023-01-21T08:30:58.618Z,23.4
2023-01-21T08:36:21.794Z,23.4
2023-01-21T08:41:44.687Z,23.7
2023-01-21T08:47:07.316Z,24.3
2023-01-21T08:52:31.062Z,24.4
2023-01-21T08:57:38.160Z,24.1
2023-01-21T09:02:45.816Z,23.8
2023-01-21T09:08:08.674Z,23.6
2023-01-21T09:13:31.601Z,23.4
2023-01-21T09:18:54.893Z,23.3
2023-01-21T09:24:17.870Z,23.5
2023-01-21T09:29:40.833Z,23.9
2023-01-21T09:34:35.421Z,24.3
2023-01-21T09:39:43.032Z,24.1
2023-01-21T09:45:06.164Z,23.8
2023-01-21T09:50:29.189Z,23.7
2023-01-21T09:55:52.544Z,23.5
2023-01-21T10:01:17.132Z,23.3
2023-01-21T10:06:40.087Z,23.3
2023-01-21T10:12:03.164Z,23.5
2023-01-21T10:17:26.148Z,23.5
2023-01-21T10:22:48.811Z,23.3
2023-01-21T10:28:14.366Z,23.2
2023-01-21T10:33:22.039Z,23.1
2023-01-21T10:38:31.477Z,23
2023-01-21T10:43:55.404Z,23
2023-01-21T10:49:19.563Z,23.2
2023-01-21T10:54:42.654Z,23.4
2023-01-21T11:00:07.489Z,23.2
2023-01-21T11:05:15.199Z,23.1
2023-01-21T11:10:38.333Z,23
2023-01-21T11:16:02.050Z,22.9
2023-01-21T11:21:27.733Z,22.9
2023-01-21T11:26:50.144Z,22.9
2023-01-21T11:32:05.531Z,23.1
2023-01-21T11:37:13.224Z,23.3
2023-01-21T11:42:36.548Z,23.1
2023-01-21T11:47:59.376Z,22.9
2023-01-21T11:53:22.745Z,22.9
2023-01-21T11:58:45.280Z,22.8
2023-01-21T12:04:08.197Z,22.8
2023-01-21T12:09:31.223Z,22.9
2023-01-21T12:14:55.775Z,23.3
2023-01-21T12:20:19.032Z,23.1
2023-01-21T12:25:41.655Z,22.9
2023-01-21T12:30:49.033Z,22.8
2023-01-21T12:36:12.460Z,22.8
2023-01-21T12:41:35.465Z,22.8
2023-01-21T12:46:58.946Z,22.9
2023-01-21T12:52:22.829Z,23.1
2023-01-21T12:57:47.029Z,22.9
2023-01-21T13:03:10.388Z,22.8
2023-01-21T13:08:33.992Z,22.8
2023-01-21T13:13:59.096Z,22.8
2023-01-21T13:19:06.923Z,22.7
2023-01-21T13:24:14.560Z,22.7
2023-01-21T13:29:38.970Z,22.6
2023-01-21T13:35:02.146Z,22.7
2023-01-21T13:40:24.898Z,22.9
2023-01-21T13:45:47.881Z,22.8
2023-01-21T13:51:10.746Z,22.7
2023-01-21T13:56:33.110Z,22.6
2023-01-21T14:01:56.831Z,22.6
2023-01-21T14:07:05.154Z,22.6
2023-01-21T14:12:27.636Z,22.6
2023-01-21T14:17:51.224Z,22.5
2023-01-21T14:22:58.568Z,22.4
2023-01-21T14:28:22.495Z,22.8
2023-01-21T14:33:45.827Z,22.7
2023-01-21T14:39:08.468Z,22.6
2023-01-21T14:44:33.950Z,22.5
2023-01-21T14:49:56.864Z,22.4
2023-01-21T14:55:20.044Z,22.4
2023-01-21T15:00:55.031Z,22.4
2023-01-21T15:06:19.593Z,22.4
2023-01-21T15:11:45.049Z,22.3
2023-01-21T15:17:09.634Z,22.7
2023-01-21T15:22:35.547Z,22.6
2023-01-21T15:27:57.577Z,22.4
2023-01-21T15:33:29.549Z,22.4
2023-01-21T15:38:52.739Z,22.4
2023-01-21T15:44:15.456Z,22.3
2023-01-21T15:49:48.955Z,22.3
2023-01-21T15:55:12.263Z,22.3
2023-01-21T16:00:34.387Z,22.1
2023-01-21T16:06:00.402Z,22.4
2023-01-21T16:11:23.141Z,22.5
2023-01-21T16:16:47.377Z,22.4
2023-01-21T16:22:12.341Z,22.3
2023-01-21T16:27:07.010Z,22.3
2023-01-21T16:32:15.782Z,22.3
2023-01-21T16:37:39.035Z,22.2
2023-01-21T16:43:01.737Z,22.2
2023-01-21T16:48:08.672Z,22.1
2023-01-21T16:53:32.101Z,22.1
2023-01-21T16:58:56.012Z,22.5
2023-01-21T17:04:19.202Z,22.3
2023-01-21T17:09:26.935Z,22.2
2023-01-21T17:14:50.459Z,22.1
2023-01-21T17:20:15.644Z,22.1
2023-01-21T17:25:39.066Z,22.1
2023-01-21T17:30:47.501Z,22.1
2023-01-21T17:35:57.751Z,22
2023-01-21T17:41:22.071Z,21.9
2023-01-21T17:46:46.694Z,22.3
2023-01-21T17:52:33.426Z,22.2
2023-01-21T17:58:03.098Z,22.1
2023-01-21T18:03:30.218Z,22.1
2023-01-21T18:08:25.838Z,22
2023-01-21T18:14:01.465Z,22
2023-01-21T18:19:27.859Z,21.9
2023-01-21T18:24:53.907Z,21.9
2023-01-21T18:30:20.506Z,21.8
2023-01-21T18:35:33.386Z,22.3
2023-01-21T18:40:43.872Z,22.2
2023-01-21T18:46:11.707Z,22.1
2023-01-21T18:51:37.944Z,22
2023-01-21T18:57:02.818Z,22
2023-01-21T19:02:30.465Z,21.9
2023-01-21T19:07:57.703Z,21.9
2023-01-21T19:13:26.140Z,21.8
2023-01-21T19:18:57.240Z,21.9
2023-01-21T19:24:29.995Z,22.3
2023-01-21T19:30:02.206Z,22.1
2023-01-21T19:35:33.770Z,22.1
2023-01-21T19:40:50.756Z,22
2023-01-21T19:46:32.412Z,22
2023-01-21T19:51:50.656Z,22
2023-01-21T19:57:22.320Z,21.9
2023-01-21T20:02:58.094Z,21.7
2023-01-21T20:08:36.920Z,22.1
2023-01-21T20:13:52.085Z,22.9
2023-01-21T20:19:19.550Z,22.9
2023-01-21T20:25:04.595Z,22.6
2023-01-21T20:30:50.583Z,22.8
2023-01-21T20:36:16.598Z,23.3
2023-01-21T20:41:41.629Z,23
2023-01-21T20:46:49.817Z,22.7
2023-01-21T20:52:26.943Z,23.2
2023-01-21T20:57:51.485Z,23.5
2023-01-21T21:03:04.088Z,23.2
2023-01-21T21:08:28.674Z,22.9
2023-01-21T21:13:39.008Z,23.3
2023-01-21T21:19:02.704Z,23.7
2023-01-21T21:24:10.804Z,23.4
2023-01-21T21:29:35.006Z,23.2
2023-01-21T21:34:58.593Z,23.1
2023-01-21T21:40:22.583Z,23.8
2023-01-21T21:45:45.781Z,23.6
2023-01-21T21:50:53.372Z,23.4
2023-01-21T21:56:17.227Z,23.1
2023-01-21T22:01:39.657Z,23.4
2023-01-21T22:07:02.885Z,23.9
2023-01-21T22:12:25.291Z,23.6
2023-01-21T22:17:49.158Z,23.4
2023-01-21T22:23:13.158Z,23.3
2023-01-21T22:28:35.993Z,23.8
2023-01-21T22:34:00.466Z,23.9
2023-01-21T22:39:23.375Z,23.6
2023-01-21T22:44:45.134Z,23.4
2023-01-21T22:49:54.476Z,23.4
2023-01-21T22:55:01.704Z,24
2023-01-21T23:00:31.089Z,23.9
2023-01-21T23:05:54.605Z,23.7
2023-01-21T23:11:18.550Z,23.5
2023-01-21T23:16:10.809Z,23.5
2023-01-21T23:21:33.474Z,24.1
2023-01-21T23:26:56.554Z,24
2023-01-21T23:31:48.902Z,23.7
2023-01-21T23:37:14.373Z,23.5
2023-01-21T23:42:36.830Z,23.6
2023-01-21T23:47:59.124Z,24.2
2023-01-21T23:53:22.515Z,24
2023-01-21T23:58:45.288Z,23.8
